Time,TemperatureF,DewpointF,PressureIn,WindDirection,WindDirectionDegrees,WindSpeedMPH,WindSpeedGustMPH,Humidity,HourlyPrecipIn,Conditions,Clouds,dailyrainin,SoftwareType,DateUTC
2013-03-24 00:00:00,47.2,42.0,30.11,WNW,292,0.0,0.0,82,0.00,,---,0.00,VWS V14.00,2013-03-24 07:00:00,
2013-03-24 00:30:00,47.5,42.0,30.11,WNW,292,0.0,0.0,81,0.00,,---,0.00,VWS V14.00,2013-03-24 07:30:00,
2013-03-24 01:00:00,47.7,41.2,30.11,WNW,292,0.0,0.0,78,0.00,,---,0.00,VWS V14.00,2013-03-24 08:00:00,
2013-03-24 01:30:00,47.9,41.0,30.11,WNW,292,0.0,0.0,77,0.00,,---,0.00,VWS V14.00,2013-03-24 08:30:00,
2013-03-24 02:00:00,47.8,40.3,30.11,WNW,292,0.0,0.0,75,0.00,,---,0.00,VWS V14.00,2013-03-24 09:00:00,
2013-03-24 02:30:00,46.7,40.5,30.10,WNW,292,0.0,0.0,79,0.00,,---,0.00,VWS V14.00,2013-03-24 09:30:00,
2013-03-24 03:00:00,47.2,40.4,30.10,WNW,292,0.0,1.0,77,0.00,,---,0.00,VWS V14.00,2013-03-24 10:00:00,
2013-03-24 03:30:00,47.8,42.3,30.10,WNW,292,0.0,0.0,81,0.00,,---,0.00,VWS V14.00,2013-03-24 10:30:00,
2013-03-24 04:00:00,47.4,43.4,30.10,NNE,22,0.0,1.0,86,0.00,,---,0.00,VWS V14.00,2013-03-24 11:00:00,
2013-03-24 04:30:00,45.9,42.8,30.11,NNE,22,0.0,2.0,89,0.00,,---,0.00,VWS V14.00,2013-03-24 11:30:00,
2013-03-24 05:00:00,45.2,42.7,30.10,ENE,68,0.0,3.0,91,0.00,,---,0.00,VWS V14.00,2013-03-24 12:00:00,
2013-03-24 05:30:00,44.2,41.2,30.10,ENE,68,0.0,1.0,89,0.00,,---,0.00,VWS V14.00,2013-03-24 12:30:00,
2013-03-24 06:00:00,45.3,42.8,30.10,ENE,68,0.0,3.0,91,0.00,,---,0.00,VWS V14.00,2013-03-24 13:00:00,
2013-03-24 06:30:00,44.2,41.2,30.12,ENE,68,0.0,1.0,89,0.00,,---,0.00,VWS V14.00,2013-03-24 13:30:00,
2013-03-24 07:00:00,44.4,42.2,30.11,ENE,68,0.0,0.0,92,0.00,,---,0.00,VWS V14.00,2013-03-24 14:00:00,
2013-03-24 07:30:00,43.6,41.4,30.11,ENE,68,0.0,0.0,92,0.00,,---,0.00,VWS V14.00,2013-03-24 14:30:00,
2013-03-24 08:00:00,43.1,40.4,30.12,ENE,68,0.0,0.0,90,0.00,,---,0.00,VWS V14.00,2013-03-24 15:00:00,
2013-03-24 08:30:00,45.8,40.6,30.12,ENE,68,0.0,0.0,82,0.00,,---,0.00,VWS V14.00,2013-03-24 15:30:00,
2013-03-24 09:00:00,51.2,43.2,30.12,ENE,68,0.0,0.0,74,0.00,,---,0.00,VWS V14.00,2013-03-24 16:00:00,
2013-03-24 09:30:00,54.3,43.2,30.13,East,90,0.0,4.0,66,0.00,,---,0.00,VWS V14.00,2013-03-24 16:30:00,
2013-03-24 10:00:00,55.7,43.3,30.13,WNW,292,0.0,4.0,63,0.00,,---,0.00,VWS V14.00,2013-03-24 17:00:00,
2013-03-24 10:30:00,57.9,44.5,30.13,SSW,202,0.0,6.0,61,0.00,,---,0.00,VWS V14.00,2013-03-24 17:30:00,
2013-03-24 11:00:00,59.6,43.4,30.12,SW,225,0.0,6.0,55,0.00,,---,0.00,VWS V14.00,2013-03-24 18:00:00,
2013-03-24 11:30:00,60.5,45.7,30.12,SW,225,1.0,10.0,58,0.00,,---,0.00,VWS V14.00,2013-03-24 18:30:00,
2013-03-24 12:00:00,62.1,48.1,30.10,SSW,202,2.0,9.0,60,0.00,,---,0.00,VWS V14.00,2013-03-24 19:00:00,
2013-03-24 12:30:00,61.3,45.5,30.10,SSW,202,3.0,9.0,56,0.00,,---,0.00,VWS V14.00,2013-03-24 19:30:00,
2013-03-24 13:00:00,60.9,45.1,30.09,SSW,202,2.0,11.0,56,0.00,,---,0.00,VWS V14.00,2013-03-24 20:00:00,
2013-03-24 13:30:00,60.3,46.8,30.08,SSW,202,3.0,10.0,61,0.00,,---,0.00,VWS V14.00,2013-03-24 20:30:00,
2013-03-24 14:00:00,59.0,46.4,30.08,SSW,202,3.0,14.0,63,0.00,,---,0.00,VWS V14.00,2013-03-24 21:00:00,
2013-03-24 14:30:00,58.8,47.9,30.06,SSW,202,3.0,11.0,67,0.00,,---,0.00,VWS V14.00,2013-03-24 21:30:00,
2013-03-24 15:00:00,60.2,47.2,30.06,SSW,202,2.0,10.0,62,0.00,,---,0.00,VWS V14.00,2013-03-24 22:00:00,
2013-03-24 15:30:00,59.8,45.5,30.05,ESE,112,3.0,12.0,59,0.00,,---,0.00,VWS V14.00,2013-03-24 22:30:00,
2013-03-24 16:00:00,59.0,49.2,30.05,SE,135,3.0,11.0,70,0.00,,---,0.00,VWS V14.00,2013-03-24 23:00:00,
2013-03-24 16:30:00,56.9,48.7,30.04,SSE,158,3.0,12.0,74,0.00,,---,0.00,VWS V14.00,2013-03-24 23:30:00,
2013-03-24 17:00:00,54.7,48.0,30.03,SE,135,3.0,12.0,78,0.00,,---,0.00,VWS V14.00,2013-03-25 00:00:00,
2013-03-24 17:30:00,52.9,47.6,30.01,SE,135,5.0,15.0,82,0.00,,---,0.00,VWS V14.00,2013-03-25 00:30:00,
2013-03-24 18:00:00,52.5,47.5,30.01,SE,135,4.0,13.0,83,0.00,,---,0.00,VWS V14.00,2013-03-25 01:00:00,
2013-03-24 18:30:00,51.7,47.0,30.01,SE,135,3.0,15.0,84,0.00,,---,0.00,VWS V14.00,2013-03-25 01:30:00,
2013-03-24 19:00:00,50.0,46.6,30.01,ESE,112,4.0,12.0,88,0.00,,---,0.00,VWS V14.00,2013-03-25 02:00:00,
2013-03-24 19:30:00,48.7,45.9,30.01,ESE,112,6.0,15.0,90,0.00,,---,0.00,VWS V14.00,2013-03-25 02:30:00,
2013-03-24 20:00:00,47.9,45.7,30.02,ESE,112,6.0,15.0,92,0.00,,---,0.00,VWS V14.00,2013-03-25 03:00:00,
2013-03-24 20:30:00,47.5,45.6,30.03,ESE,112,8.0,16.0,93,0.00,,---,0.00,VWS V14.00,2013-03-25 03:30:00,
2013-03-24 21:00:00,47.3,45.7,30.03,ESE,112,8.0,16.0,94,0.00,,---,0.00,VWS V14.00,2013-03-25 04:00:00,
2013-03-24 21:30:00,47.0,45.4,30.03,ESE,112,4.0,14.0,94,0.00,,---,0.00,VWS V14.00,2013-03-25 04:30:00,
2013-03-24 22:00:00,46.8,45.2,30.03,ESE,112,3.0,9.0,94,0.00,,---,0.00,VWS V14.00,2013-03-25 05:00:00,
2013-03-24 22:30:00,46.3,44.7,30.04,East,90,0.0,2.0,94,0.00,,---,0.00,VWS V14.00,2013-03-25 05:30:00,
2013-03-24 23:00:00,46.5,45.2,30.04,East,90,0.0,0.0,95,0.00,,---,0.00,VWS V14.00,2013-03-25 06:00:00,
2013-03-24 23:30:00,46.4,45.0,30.04,East,90,0.0,0.0,95,0.00,,---,0.00,VWS V14.00,2013-03-25 06:30:00,